Time;durP1;ratioP1;P1;durP2;ratioP2;P2;SDS_P1;SDS_P2;PMS_P1;PMS_P2;Temp;Humidity;BMP_temperature;BMP_pressure;BME280_temperature;BME280_humidity;BME280_pressure;Samples;Min_cycle;Max_cycle;Signal;HPM_P1;HPM_P2
2023/03/27 00:00:46;;;;;;;0.15;0.15;;;;;;;;;;4146883;28;20108;-36
2023/03/27 00:02:48;;;;;;;0.52;0.40;;;;;;;;;;4146491;28;20394;-36
2023/03/27 00:04:50;;;;;;;0.10;0.10;;;;;;;;;;4147271;28;20054;-35
2023/03/27 00:06:53;;;;;;;0.35;0.22;;;;;;;;;;4144640;28;20064;-36
2023/03/27 00:09:13;;;;;;;0.95;0.15;;;;;;;;;;4146671;28;20532;-35
2023/03/27 00:11:15;;;;;;;0.20;0.17;;;;;;;;;;4146866;28;20123;-35
2023/03/27 00:13:35;;;;;;;0.20;0.20;;;;;;;;;;4141664;28;20058;-35
2023/03/27 00:15:38;;;;;;;0.43;0.22;;;;;;;;;;4146574;28;20061;-35
2023/03/27 00:17:39;;;;;;;0.20;0.10;;;;;;;;;;4146313;28;20123;-35
2023/03/27 00:19:41;;;;;;;0.22;0.20;;;;;;;;;;4145528;28;20054;-35
2023/03/27 00:21:43;;;;;;;0.30;0.20;;;;;;;;;;4146535;28;20057;-36
2023/03/27 00:23:44;;;;;;;0.20;0.10;;;;;;;;;;4146942;28;20068;-35
2023/03/27 00:25:49;;;;;;;0.55;0.30;;;;;;;;;;4146969;28;20119;-35
2023/03/27 00:27:50;;;;;;;0.20;0.20;;;;;;;;;;4146283;28;20104;-36
2023/03/27 00:29:52;;;;;;;0.90;0.20;;;;;;;;;;4145060;28;20538;-36
2023/03/27 00:31:54;;;;;;;0.70;0.30;;;;;;;;;;4141552;28;20469;-35
2023/03/27 00:33:56;;;;;;;0.28;0.13;;;;;;;;;;4146239;28;20099;-35
2023/03/27 00:35:57;;;;;;;0.20;0.20;;;;;;;;;;4146635;28;20457;-35
2023/03/27 00:37:58;;;;;;;0.20;0.20;;;;;;;;;;4145078;28;20057;-35
2023/03/27 00:40:00;;;;;;;0.13;0.13;;;;;;;;;;4145222;28;20088;-36
2023/03/27 00:42:02;;;;;;;0.10;0.10;;;;;;;;;;4146225;28;20053;-36
2023/03/27 00:44:20;;;;;;;0.20;0.20;;;;;;;;;;4146428;28;20112;-35
2023/03/27 00:46:30;;;;;;;0.77;0.30;;;;;;;;;;4145671;28;20058;-36
2023/03/27 00:48:34;;;;;;;0.38;0.28;;;;;;;;;;4146364;28;20116;-36
2023/03/27 00:50:38;;;;;;;0.28;0.20;;;;;;;;;;4145165;28;20485;-35
2023/03/27 00:52:41;;;;;;;0.82;0.30;;;;;;;;;;4145249;28;20111;-35
2023/03/27 00:54:43;;;;;;;0.20;0.20;;;;;;;;;;4140935;28;20053;-35
2023/03/27 00:56:44;;;;;;;0.75;0.30;;;;;;;;;;4144351;28;20112;-35
2023/03/27 00:58:50;;;;;;;0.52;0.20;;;;;;;;;;4139315;28;20053;-36
2023/03/27 01:00:53;;;;;;;0.30;0.20;;;;;;;;;;4123943;28;20054;-35
2023/03/27 01:02:54;;;;;;;1.10;0.28;;;;;;;;;;4139846;28;20053;-35
2023/03/27 01:04:56;;;;;;;0.70;0.30;;;;;;;;;;4144682;28;20058;-35
2023/03/27 01:06:59;;;;;;;0.45;0.20;;;;;;;;;;4142758;28;20058;-36
2023/03/27 01:09:01;;;;;;;0.20;0.20;;;;;;;;;;4129083;28;20050;-36
2023/03/27 01:11:27;;;;;;;0.80;0.30;;;;;;;;;;4144404;28;20065;-35
2023/03/27 01:13:29;;;;;;;0.70;0.20;;;;;;;;;;4145047;28;20101;-35
2023/03/27 01:15:55;;;;;;;0.17;0.17;;;;;;;;;;4140477;28;20054;-36
2023/03/27 01:18:02;;;;;;;0.20;0.20;;;;;;;;;;4145275;28;20124;-35
2023/03/27 01:20:41;;;;;;;1.63;0.22;;;;;;;;;;4146172;28;20123;-35
2023/03/27 01:22:57;;;;;;;0.30;0.20;;;;;;;;;;4128783;28;20050;-35
2023/03/27 01:25:38;;;;;;;0.70;0.30;;;;;;;;;;4137484;28;20057;-35
2023/03/27 01:28:22;;;;;;;0.30;0.10;;;;;;;;;;4140704;28;20096;-35
2023/03/27 01:30:40;;;;;;;0.63;0.38;;;;;;;;;;4177265;28;20055;-35
2023/03/27 01:33:03;;;;;;;0.50;0.30;;;;;;;;;;4144038;28;20062;-35
2023/03/27 01:35:24;;;;;;;0.17;0.17;;;;;;;;;;4138878;28;20058;-36
2023/03/27 01:37:50;;;;;;;0.25;0.10;;;;;;;;;;4144706;28;20064;-35
2023/03/27 01:40:04;;;;;;;0.43;0.30;;;;;;;;;;4150417;28;20062;-35
2023/03/27 01:42:07;;;;;;;0.10;0.10;;;;;;;;;;4144770;28;20390;-35
2023/03/27 01:44:47;;;;;;;0.22;0.22;;;;;;;;;;4145298;28;20077;-35
2023/03/27 01:46:55;;;;;;;0.68;0.30;;;;;;;;;;4153897;28;20131;-35
2023/03/27 01:49:05;;;;;;;0.20;0.20;;;;;;;;;;4147857;28;20112;-35
2023/03/27 01:51:17;;;;;;;0.10;0.10;;;;;;;;;;4119104;28;20062;-35
2023/03/27 01:53:29;;;;;;;0.20;0.20;;;;;;;;;;4147806;28;20494;-36
2023/03/27 01:55:35;;;;;;;0.20;0.20;;;;;;;;;;4149069;28;20060;-35
2023/03/27 01:57:40;;;;;;;0.10;0.10;;;;;;;;;;4131226;28;20058;-35
2023/03/27 01:59:44;;;;;;;0.22;0.20;;;;;;;;;;4147771;28;20096;-35
2023/03/27 02:02:00;;;;;;;0.30;0.30;;;;;;;;;;4121628;28;20051;-35
2023/03/27 02:04:02;;;;;;;0.28;0.20;;;;;;;;;;4130143;28;20065;-35
2023/03/27 02:06:11;;;;;;;0.47;0.30;;;;;;;;;;4147572;28;20058;-35
2023/03/27 02:08:17;;;;;;;0.30;0.20;;;;;;;;;;4147562;28;20057;-35
2023/03/27 02:10:26;;;;;;;0.25;0.20;;;;;;;;;;4147746;28;20054;-35
2023/03/27 02:12:32;;;;;;;0.10;0.10;;;;;;;;;;4128620;28;20118;-35
2023/03/27 02:14:39;;;;;;;0.52;0.20;;;;;;;;;;4154485;28;20053;-35
2023/03/27 02:16:44;;;;;;;0.43;0.15;;;;;;;;;;4146993;28;20212;-36
2023/03/27 02:18:55;;;;;;;0.10;0.10;;;;;;;;;;4117838;28;20051;-35
2023/03/27 02:20:56;;;;;;;0.57;0.20;;;;;;;;;;4115293;28;20059;-35
2023/03/27 02:23:00;;;;;;;0.43;0.20;;;;;;;;;;4123246;28;20054;-36
2023/03/27 02:25:03;;;;;;;0.10;0.10;;;;;;;;;;4147830;28;20116;-35
2023/03/27 02:27:16;;;;;;;0.20;0.20;;;;;;;;;;4146865;28;20120;-36
2023/03/27 02:29:53;;;;;;;0.70;0.20;;;;;;;;;;4146300;28;20049;-36
2023/03/27 02:32:02;;;;;;;0.55;0.10;;;;;;;;;;4160954;28;20061;-35
2023/03/27 02:34:28;;;;;;;0.77;0.20;;;;;;;;;;4131339;28;20065;-35
2023/03/27 02:36:55;;;;;;;0.47;0.20;;;;;;;;;;4146966;28;20053;-35
2023/03/27 02:39:08;;;;;;;0.10;0.10;;;;;;;;;;4146994;28;20076;-35
2023/03/27 02:41:48;;;;;;;0.25;0.20;;;;;;;;;;4148664;28;20464;-35
2023/03/27 02:44:30;;;;;;;0.17;0.10;;;;;;;;;;4138646;28;20062;-35
2023/03/27 02:46:49;;;;;;;0.30;0.30;;;;;;;;;;4147800;28;20053;-35
2023/03/27 02:48:55;;;;;;;0.20;0.17;;;;;;;;;;4125810;28;20061;-35
2023/03/27 02:51:01;;;;;;;0.20;0.13;;;;;;;;;;4123979;28;20093;-35
2023/03/27 02:53:03;;;;;;;0.20;0.20;;;;;;;;;;4148172;28;20065;-35
2023/03/27 02:55:34;;;;;;;0.80;0.22;;;;;;;;;;4133441;28;20089;-35
2023/03/27 02:57:40;;;;;;;0.15;0.15;;;;;;;;;;4124386;28;20097;-35
2023/03/27 03:00:19;;;;;;;0.30;0.30;;;;;;;;;;4146575;28;20599;-35
2023/03/27 03:02:31;;;;;;;0.55;0.38;;;;;;;;;;4146314;28;20050;-34
2023/03/27 03:04:40;;;;;;;0.25;0.15;;;;;;;;;;4129912;28;20445;-36
2023/03/27 03:06:55;;;;;;;0.32;0.28;;;;;;;;;;4124761;28;20062;-35
2023/03/27 03:09:00;;;;;;;0.40;0.13;;;;;;;;;;4146395;28;20061;-36
2023/03/27 03:11:03;;;;;;;0.40;0.20;;;;;;;;;;4130570;28;20132;-37
2023/03/27 03:13:04;;;;;;;0.28;0.20;;;;;;;;;;4146160;28;20061;-35
2023/03/27 03:15:24;;;;;;;0.40;0.20;;;;;;;;;;4148064;28;20108;-35
2023/03/27 03:17:26;;;;;;;0.20;0.20;;;;;;;;;;4146057;28;20053;-37
2023/03/27 03:19:27;;;;;;;0.20;0.20;;;;;;;;;;4146308;28;20132;-36
2023/03/27 03:21:30;;;;;;;0.25;0.20;;;;;;;;;;4146701;28;20062;-36
2023/03/27 03:23:32;;;;;;;0.10;0.10;;;;;;;;;;4146478;28;20081;-36
2023/03/27 03:25:55;;;;;;;0.22;0.20;;;;;;;;;;4146862;28;20057;-36
2023/03/27 03:27:59;;;;;;;0.28;0.10;;;;;;;;;;4146558;28;20057;-35
2023/03/27 03:30:03;;;;;;;0.52;0.20;;;;;;;;;;4146206;28;20061;-35
2023/03/27 03:32:07;;;;;;;0.15;0.15;;;;;;;;;;4145743;28;20498;-35
2023/03/27 03:34:11;;;;;;;0.20;0.20;;;;;;;;;;4179563;28;20084;-35
2023/03/27 03:36:31;;;;;;;0.38;0.10;;;;;;;;;;4143218;28;20104;-35
2023/03/27 03:38:34;;;;;;;0.25;0.20;;;;;;;;;;4145874;28;20588;-35
2023/03/27 03:40:36;;;;;;;0.22;0.20;;;;;;;;;;4146344;28;20057;-35
2023/03/27 03:42:48;;;;;;;1.63;0.20;;;;;;;;;;4146939;28;20061;-35
2023/03/27 03:44:51;;;;;;;0.22;0.20;;;;;;;;;;4145867;28;20085;-35
2023/03/27 03:46:54;;;;;;;0.40;0.20;;;;;;;;;;4145487;28;20061;-35
2023/03/27 03:48:55;;;;;;;0.63;0.32;;;;;;;;;;4156865;28;20073;-35
2023/03/27 03:50:56;;;;;;;0.73;0.22;;;;;;;;;;4161866;28;20061;-36
2023/03/27 03:52:58;;;;;;;0.13;0.10;;;;;;;;;;4147277;28;20559;-35
2023/03/27 03:54:59;;;;;;;0.20;0.20;;;;;;;;;;4139784;28;20509;-36
2023/03/27 03:57:19;;;;;;;;;;;;;;;;;;4174122;28;20440;-35
2023/03/27 03:59:34;;;;;;;1.30;0.30;;;;;;;;;;4131475;28;20329;-36
2023/03/27 04:01:57;;;;;;;0.43;0.20;;;;;;;;;;4141281;28;20050;-35
2023/03/27 04:04:03;;;;;;;0.57;0.20;;;;;;;;;;4178415;28;20060;-37
2023/03/27 04:06:25;;;;;;;1.90;0.30;;;;;;;;;;4124333;28;20061;-36
2023/03/27 04:08:33;;;;;;;0.20;0.20;;;;;;;;;;4137459;28;20101;-36
2023/03/27 04:10:54;;;;;;;0.32;0.20;;;;;;;;;;4146915;28;20492;-36
2023/03/27 04:13:11;;;;;;;0.20;0.10;;;;;;;;;;4128809;28;20485;-36
2023/03/27 04:15:23;;;;;;;1.73;0.30;;;;;;;;;;4145472;28;20432;-36
2023/03/27 04:17:37;;;;;;;2.30;0.20;;;;;;;;;;4146512;28;20519;-40
2023/03/27 04:19:40;;;;;;;0.47;0.30;;;;;;;;;;4145474;28;20096;-41
2023/03/27 04:21:42;;;;;;;0.35;0.20;;;;;;;;;;4145428;28;20128;-40
2023/03/27 04:23:46;;;;;;;1.75;0.20;;;;;;;;;;4145478;28;20508;-41
2023/03/27 04:25:51;;;;;;;0.68;0.20;;;;;;;;;;4129521;28;20407;-41
2023/03/27 04:28:01;;;;;;;0.95;0.20;;;;;;;;;;4145238;28;20054;-40
2023/03/27 04:30:12;;;;;;;0.40;0.40;;;;;;;;;;4128945;28;20065;-41
2023/03/27 04:32:33;;;;;;;2.20;0.13;;;;;;;;;;4146214;28;20136;-40
2023/03/27 04:35:03;;;;;;;2.42;0.40;;;;;;;;;;4146550;28;20103;-41
2023/03/27 04:37:23;;;;;;;1.85;0.35;;;;;;;;;;4146899;28;20115;-41
2023/03/27 04:39:41;;;;;;;1.30;0.32;;;;;;;;;;4145422;28;20544;-41
2023/03/27 04:41:48;;;;;;;3.42;0.40;;;;;;;;;;4146041;28;20053;-40
2023/03/27 04:43:50;;;;;;;0.90;0.30;;;;;;;;;;4145566;28;20132;-40
2023/03/27 04:45:52;;;;;;;1.15;0.30;;;;;;;;;;4145457;28;20431;-41
2023/03/27 04:47:54;;;;;;;2.10;0.20;;;;;;;;;;4140624;28;20171;-40
2023/03/27 04:49:58;;;;;;;0.43;0.28;;;;;;;;;;4149505;28;20089;-40
2023/03/27 04:52:01;;;;;;;1.23;0.57;;;;;;;;;;4138903;28;20481;-40
2023/03/27 04:54:04;;;;;;;0.57;0.20;;;;;;;;;;4143170;28;20054;-41
2023/03/27 04:56:05;;;;;;;1.27;0.30;;;;;;;;;;4138736;28;20116;-41
2023/03/27 04:58:11;;;;;;;0.10;0.10;;;;;;;;;;4141201;28;20127;-40
2023/03/27 05:00:15;;;;;;;0.85;0.30;;;;;;;;;;4142396;28;20180;-41
2023/03/27 05:02:20;;;;;;;0.32;0.28;;;;;;;;;;4142733;28;20085;-40
2023/03/27 05:04:27;;;;;;;1.17;0.30;;;;;;;;;;4141780;28;20061;-39
2023/03/27 05:06:47;;;;;;;0.20;0.20;;;;;;;;;;4143343;28;20559;-40
2023/03/27 05:08:51;;;;;;;0.15;0.15;;;;;;;;;;4142346;28;20207;-39
2023/03/27 05:10:59;;;;;;;0.38;0.20;;;;;;;;;;4142539;28;20065;-41
2023/03/27 05:15:22;;;;;;;1.00;0.45;;;;;;;;;;4142947;28;20607;-40
2023/03/27 05:17:24;;;;;;;0.98;0.30;;;;;;;;;;4139721;28;20050;-41
2023/03/27 05:19:26;;;;;;;0.80;0.40;;;;;;;;;;4145462;28;20057;-40
2023/03/27 05:21:32;;;;;;;1.33;0.40;;;;;;;;;;4127479;28;20513;-39
2023/03/27 05:23:34;;;;;;;1.38;0.10;;;;;;;;;;4144385;28;20049;-39
2023/03/27 05:25:38;;;;;;;1.02;0.20;;;;;;;;;;4144846;28;20116;-39
2023/03/27 05:27:48;;;;;;;0.73;0.30;;;;;;;;;;4144214;28;20058;-40
2023/03/27 05:29:52;;;;;;;0.20;0.20;;;;;;;;;;4145459;28;20061;-39
2023/03/27 05:32:12;;;;;;;0.17;0.10;;;;;;;;;;4141611;28;20455;-40
2023/03/27 05:34:18;;;;;;;1.48;0.45;;;;;;;;;;4145257;28;20049;-40
2023/03/27 05:36:21;;;;;;;1.00;0.28;;;;;;;;;;4145814;28;20124;-39
2023/03/27 05:38:23;;;;;;;1.80;0.30;;;;;;;;;;4145466;28;20429;-39
2023/03/27 05:40:47;;;;;;;2.13;0.50;;;;;;;;;;4143875;28;20224;-40
2023/03/27 05:42:52;;;;;;;0.55;0.20;;;;;;;;;;4142199;28;20058;-40
2023/03/27 05:44:54;;;;;;;0.20;0.20;;;;;;;;;;4145744;28;20477;-39
2023/03/27 05:46:58;;;;;;;0.22;0.20;;;;;;;;;;4143170;28;20108;-40
2023/03/27 05:49:03;;;;;;;1.45;0.28;;;;;;;;;;4144979;28;20054;-40
2023/03/27 05:51:05;;;;;;;0.30;0.20;;;;;;;;;;4145522;28;20062;-38
2023/03/27 05:53:09;;;;;;;1.10;0.30;;;;;;;;;;4145159;28;20529;-40
2023/03/27 05:55:15;;;;;;;0.20;0.20;;;;;;;;;;4145527;28;20064;-38
2023/03/27 05:57:18;;;;;;;0.10;0.10;;;;;;;;;;4145134;28;20100;-39
2023/03/27 05:59:19;;;;;;;0.95;0.30;;;;;;;;;;4145238;28;20508;-39
2023/03/27 06:01:39;;;;;;;0.32;0.20;;;;;;;;;;4145559;28;20058;-40
2023/03/27 06:03:40;;;;;;;4.68;0.32;;;;;;;;;;4132220;28;20421;-39
2023/03/27 06:05:49;;;;;;;1.13;0.20;;;;;;;;;;4139251;28;20069;-38
2023/03/27 06:07:50;;;;;;;2.28;0.30;;;;;;;;;;4147784;28;20119;-40
2023/03/27 06:09:52;;;;;;;0.47;0.20;;;;;;;;;;4137791;28;20674;-38
2023/03/27 06:12:17;;;;;;;0.30;0.15;;;;;;;;;;4148581;28;20501;-38
2023/03/27 06:14:38;;;;;;;0.75;0.30;;;;;;;;;;4127702;28;20072;-38
2023/03/27 06:17:01;;;;;;;1.85;0.20;;;;;;;;;;4137345;28;20433;-37
2023/03/27 06:19:25;;;;;;;0.52;0.30;;;;;;;;;;4138600;28;20069;-36
2023/03/27 06:21:27;;;;;;;3.05;0.70;;;;;;;;;;4131641;28;20057;-37
2023/03/27 06:23:33;;;;;;;0.40;0.20;;;;;;;;;;4134168;28;20734;-36
2023/03/27 06:25:36;;;;;;;0.40;0.20;;;;;;;;;;4123437;28;24919;-36
2023/03/27 06:27:44;;;;;;;0.47;0.20;;;;;;;;;;4128491;28;20057;-36
2023/03/27 06:29:46;;;;;;;0.75;0.43;;;;;;;;;;4127170;28;20046;-36
2023/03/27 06:31:48;;;;;;;1.60;0.50;;;;;;;;;;4121336;28;20062;-35
2023/03/27 06:33:58;;;;;;;0.32;0.20;;;;;;;;;;4131924;28;20506;-35
2023/03/27 06:36:26;;;;;;;0.50;0.25;;;;;;;;;;4147863;28;20062;-35
2023/03/27 06:38:30;;;;;;;1.15;0.20;;;;;;;;;;4132360;28;20096;-35
2023/03/27 06:40:34;;;;;;;0.70;0.30;;;;;;;;;;4122164;28;20560;-36
2023/03/27 06:42:57;;;;;;;0.55;0.20;;;;;;;;;;4130532;28;20136;-36
2023/03/27 06:45:05;;;;;;;1.13;0.20;;;;;;;;;;4135799;28;20476;-38
2023/03/27 06:47:25;;;;;;;1.77;0.28;;;;;;;;;;4129529;28;20088;-36
2023/03/27 06:49:47;;;;;;;0.77;0.25;;;;;;;;;;4135531;28;20049;-35
2023/03/27 06:51:53;;;;;;;1.17;0.28;;;;;;;;;;4129697;28;20068;-35
2023/03/27 06:53:55;;;;;;;0.50;0.20;;;;;;;;;;4121400;28;20058;-36
2023/03/27 06:55:58;;;;;;;1.67;0.40;;;;;;;;;;4128093;28;20603;-37
2023/03/27 06:58:02;;;;;;;0.50;0.20;;;;;;;;;;4124566;28;20594;-37
2023/03/27 07:00:11;;;;;;;0.77;0.30;;;;;;;;;;4124694;28;20057;-37
2023/03/27 07:02:30;;;;;;;1.42;0.22;;;;;;;;;;4142165;28;20449;-36
2023/03/27 07:05:11;;;;;;;2.25;0.40;;;;;;;;;;4134846;28;20408;-37
2023/03/27 07:07:31;;;;;;;1.52;0.30;;;;;;;;;;4127446;28;20513;-37
2023/03/27 07:09:32;;;;;;;0.20;0.20;;;;;;;;;;4130397;28;20053;-37
2023/03/27 07:11:38;;;;;;;1.85;0.20;;;;;;;;;;4127753;28;20589;-37
2023/03/27 07:13:43;;;;;;;0.35;0.30;;;;;;;;;;4128811;28;20066;-36
2023/03/27 07:15:54;;;;;;;1.85;0.20;;;;;;;;;;4129911;28;20548;-36
2023/03/27 07:18:00;;;;;;;0.45;0.20;;;;;;;;;;4129768;28;20058;-37
2023/03/27 07:20:20;;;;;;;0.50;0.38;;;;;;;;;;4154456;28;20056;-38
2023/03/27 07:22:21;;;;;;;0.30;0.30;;;;;;;;;;4126052;28;20124;-37
2023/03/27 07:24:23;;;;;;;1.40;0.47;;;;;;;;;;4102190;28;20945;-38
2023/03/27 07:26:24;;;;;;;0.38;0.20;;;;;;;;;;4114880;28;20151;-37
2023/03/27 07:28:29;;;;;;;4.25;0.30;;;;;;;;;;4110770;28;20194;-38
2023/03/27 07:30:32;;;;;;;1.70;0.22;;;;;;;;;;4129757;28;20103;-38
2023/03/27 07:32:34;;;;;;;3.10;0.43;;;;;;;;;;4116014;28;20077;-36
2023/03/27 07:34:37;;;;;;;2.15;1.20;;;;;;;;;;4105978;28;20517;-38
2023/03/27 07:36:42;;;;;;;0.35;0.30;;;;;;;;;;4128436;28;20057;-37
2023/03/27 07:38:44;;;;;;;0.17;0.10;;;;;;;;;;4122264;28;20594;-35
2023/03/27 07:41:06;;;;;;;0.25;0.20;;;;;;;;;;4121730;28;20979;-37
2023/03/27 07:43:15;;;;;;;;;;;;;;;;;;4124800;28;20049;-36
2023/03/27 07:45:20;;;;;;;0.35;0.20;;;;;;;;;;4111787;28;19929;-36
2023/03/27 07:47:24;;;;;;;2.30;0.20;;;;;;;;;;4143699;28;20527;-36
2023/03/27 07:49:44;;;;;;;1.30;0.30;;;;;;;;;;4125292;28;21791;-38
2023/03/27 07:51:48;;;;;;;1.17;0.30;;;;;;;;;;4131343;28;20066;-39
2023/03/27 07:53:57;;;;;;;0.60;0.30;;;;;;;;;;4130923;28;20061;-38
2023/03/27 07:56:04;;;;;;;0.65;0.22;;;;;;;;;;4113484;28;20054;-36
2023/03/27 07:58:07;;;;;;;1.77;0.52;;;;;;;;;;4153664;28;20142;-37
2023/03/27 08:00:10;;;;;;;0.68;0.20;;;;;;;;;;4115384;28;20112;-36
2023/03/27 08:02:35;;;;;;;0.52;0.30;;;;;;;;;;4112763;28;20080;-38
2023/03/27 08:04:38;;;;;;;1.65;0.20;;;;;;;;;;4116831;28;20145;-37
2023/03/27 08:06:42;;;;;;;1.35;0.47;;;;;;;;;;4129828;28;20417;-37
2023/03/27 08:08:50;;;;;;;0.73;0.20;;;;;;;;;;4126885;28;20083;-37
2023/03/27 08:10:55;;;;;;;0.57;0.40;;;;;;;;;;4139662;28;20061;-36
2023/03/27 08:12:58;;;;;;;0.20;0.20;;;;;;;;;;4138500;28;20132;-37
2023/03/27 08:15:01;;;;;;;0.38;0.20;;;;;;;;;;4124047;28;20536;-35
2023/03/27 08:17:03;;;;;;;0.47;0.28;;;;;;;;;;4162053;28;20146;-36
2023/03/27 08:19:05;;;;;;;1.10;0.30;;;;;;;;;;4105227;28;20050;-36
2023/03/27 08:21:11;;;;;;;1.67;0.28;;;;;;;;;;4126450;28;20147;-37
2023/03/27 08:23:13;;;;;;;0.55;0.20;;;;;;;;;;4122301;28;20156;-36
2023/03/27 08:25:33;;;;;;;1.08;0.35;;;;;;;;;;4122286;28;20065;-38
2023/03/27 08:27:39;;;;;;;0.30;0.30;;;;;;;;;;4123542;28;20177;-38
2023/03/27 08:29:42;;;;;;;0.28;0.20;;;;;;;;;;4138573;28;20060;-37
2023/03/27 08:32:02;;;;;;;1.98;0.30;;;;;;;;;;4115547;28;20208;-37
2023/03/27 08:34:04;;;;;;;2.67;0.35;;;;;;;;;;4119390;28;20061;-37
2023/03/27 08:36:33;;;;;;;0.52;0.30;;;;;;;;;;4118237;28;20424;-36
2023/03/27 08:38:38;;;;;;;1.55;0.20;;;;;;;;;;4120731;28;20104;-36
2023/03/27 08:40:52;;;;;;;0.43;0.20;;;;;;;;;;4121560;28;20053;-36
2023/03/27 08:43:10;;;;;;;0.60;0.20;;;;;;;;;;4130538;28;20112;-36
2023/03/27 08:45:28;;;;;;;0.68;0.20;;;;;;;;;;4121667;28;20100;-35
2023/03/27 08:47:43;;;;;;;0.63;0.25;;;;;;;;;;4124328;28;20053;-35
2023/03/27 08:49:55;;;;;;;4.03;0.47;;;;;;;;;;4123243;28;20099;-35
2023/03/27 08:52:02;;;;;;;0.20;0.20;;;;;;;;;;4122784;28;20112;-36
2023/03/27 08:54:15;;;;;;;1.20;0.22;;;;;;;;;;4104084;28;20097;-36
2023/03/27 08:56:17;;;;;;;2.25;0.22;;;;;;;;;;4116095;28;20703;-36
2023/03/27 08:58:21;;;;;;;0.43;0.20;;;;;;;;;;4148795;28;20056;-39
2023/03/27 09:00:32;;;;;;;0.47;0.30;;;;;;;;;;4120262;28;20064;-37
2023/03/27 09:03:16;;;;;;;1.88;0.15;;;;;;;;;;4110971;28;23495;-36
2023/03/27 09:05:55;;;;;;;0.32;0.20;;;;;;;;;;4124537;28;21985;-35
2023/03/27 09:08:20;;;;;;;1.20;0.30;;;;;;;;;;4116787;28;20155;-36
2023/03/27 09:10:33;;;;;;;1.45;0.57;;;;;;;;;;4116724;28;20053;-37
2023/03/27 09:12:55;;;;;;;1.77;0.20;;;;;;;;;;4136839;28;20970;-36
2023/03/27 09:15:08;;;;;;;1.58;1.20;;;;;;;;;;4126816;28;20142;-35
2023/03/27 09:17:20;;;;;;;0.38;0.20;;;;;;;;;;4136695;28;20434;-37
2023/03/27 09:19:44;;;;;;;2.63;0.30;;;;;;;;;;4115473;28;20156;-39
2023/03/27 09:21:56;;;;;;;1.15;0.28;;;;;;;;;;4120594;28;20561;-35
2023/03/27 09:24:30;;;;;;;0.25;0.20;;;;;;;;;;4110651;28;20121;-34
2023/03/27 09:26:52;;;;;;;0.47;0.30;;;;;;;;;;4126713;28;20108;-37
2023/03/27 09:29:16;;;;;;;4.70;0.60;;;;;;;;;;4136766;28;20163;-38
2023/03/27 09:31:34;;;;;;;2.17;0.50;;;;;;;;;;4119256;28;20057;-37
2023/03/27 09:33:40;;;;;;;2.22;0.30;;;;;;;;;;4113945;28;20101;-37
2023/03/27 09:35:43;;;;;;;0.20;0.17;;;;;;;;;;4110976;28;20135;-35
2023/03/27 09:37:45;;;;;;;0.57;0.38;;;;;;;;;;4108448;28;20050;-37
2023/03/27 09:39:49;;;;;;;0.20;0.20;;;;;;;;;;4148694;28;20057;-38
2023/03/27 09:42:04;;;;;;;1.38;0.30;;;;;;;;;;4131899;28;20139;-37
2023/03/27 09:44:27;;;;;;;0.25;0.20;;;;;;;;;;4123402;28;21059;-37
2023/03/27 09:46:35;;;;;;;0.57;0.40;;;;;;;;;;4104390;28;20054;-36
2023/03/27 09:48:45;;;;;;;0.45;0.28;;;;;;;;;;4124696;28;20089;-37
2023/03/27 09:50:49;;;;;;;0.32;0.32;;;;;;;;;;4108612;28;20057;-37
2023/03/27 09:53:24;;;;;;;0.47;0.20;;;;;;;;;;4117406;28;20366;-38
2023/03/27 09:55:55;;;;;;;0.80;0.30;;;;;;;;;;4145407;28;20840;-38
2023/03/27 09:58:26;;;;;;;0.70;0.30;;;;;;;;;;4146672;28;20366;-38
2023/03/27 10:00:47;;;;;;;1.02;0.30;;;;;;;;;;4128113;28;20096;-36
2023/03/27 10:02:48;;;;;;;1.90;0.30;;;;;;;;;;4096012;28;20062;-36
2023/03/27 10:05:10;;;;;;;0.73;0.50;;;;;;;;;;4123838;28;20985;-37
2023/03/27 10:07:22;;;;;;;2.63;0.52;;;;;;;;;;4110131;28;20094;-37
2023/03/27 10:10:11;;;;;;;1.33;0.20;;;;;;;;;;4166708;28;20053;-37
2023/03/27 10:12:31;;;;;;;0.30;0.20;;;;;;;;;;4151032;28;20053;-36
2023/03/27 10:14:37;;;;;;;0.30;0.20;;;;;;;;;;4141008;28;20060;-37
2023/03/27 10:16:40;;;;;;;0.43;0.30;;;;;;;;;;4124340;28;20384;-38
2023/03/27 10:18:48;;;;;;;0.30;0.30;;;;;;;;;;4139041;28;20469;-38
2023/03/27 10:20:53;;;;;;;0.22;0.20;;;;;;;;;;4137747;28;20139;-37
2023/03/27 10:23:08;;;;;;;0.82;0.38;;;;;;;;;;4147763;28;20053;-36
2023/03/27 10:25:32;;;;;;;0.80;0.30;;;;;;;;;;4127654;28;20567;-38
2023/03/27 10:27:46;;;;;;;0.63;0.30;;;;;;;;;;4110520;28;20054;-36
2023/03/27 10:30:36;;;;;;;0.80;0.20;;;;;;;;;;4153513;28;20081;-37
2023/03/27 10:32:56;;;;;;;0.60;0.30;;;;;;;;;;4133957;28;20697;-37
2023/03/27 10:35:25;;;;;;;0.73;0.38;;;;;;;;;;4134568;28;20057;-37
2023/03/27 10:37:56;;;;;;;0.68;0.30;;;;;;;;;;4125593;28;20054;-35
2023/03/27 10:40:36;;;;;;;0.63;0.25;;;;;;;;;;4125481;28;20360;-37
2023/03/27 10:42:47;;;;;;;1.52;0.30;;;;;;;;;;4121531;28;20101;-37
2023/03/27 10:44:48;;;;;;;0.28;0.22;;;;;;;;;;4110055;28;20054;-36
2023/03/27 10:46:51;;;;;;;0.90;0.35;;;;;;;;;;4126933;28;20568;-38
2023/03/27 10:49:10;;;;;;;0.73;0.30;;;;;;;;;;4130471;28;20056;-37
2023/03/27 10:51:32;;;;;;;;;;;;;;;;;;4124287;28;20100;-36
2023/03/27 10:53:47;;;;;;;0.20;0.20;;;;;;;;;;4127153;28;19992;-36
2023/03/27 10:56:09;;;;;;;2.15;0.30;;;;;;;;;;4154278;28;20573;-37
2023/03/27 10:58:28;;;;;;;2.38;0.22;;;;;;;;;;4147303;28;20131;-38
2023/03/27 11:00:42;;;;;;;0.10;0.10;;;;;;;;;;4092355;28;20806;-36
2023/03/27 11:02:56;;;;;;;0.88;0.25;;;;;;;;;;4091674;28;20674;-36
2023/03/27 11:05:01;;;;;;;1.70;0.40;;;;;;;;;;4120073;28;20135;-35
2023/03/27 11:07:05;;;;;;;0.70;0.50;;;;;;;;;;4106074;28;20063;-37
2023/03/27 11:09:30;;;;;;;0.43;0.40;;;;;;;;;;4126242;28;20131;-36
2023/03/27 11:11:58;;;;;;;0.55;0.30;;;;;;;;;;4100648;28;20125;-42
2023/03/27 11:14:02;;;;;;;0.20;0.20;;;;;;;;;;4105836;28;20592;-38
2023/03/27 11:16:15;;;;;;;0.85;0.43;;;;;;;;;;4127651;28;20379;-39
2023/03/27 11:19:08;;;;;;;1.15;0.38;;;;;;;;;;4119083;28;20175;-37
2023/03/27 11:21:35;;;;;;;0.47;0.30;;;;;;;;;;4120744;28;20053;-36
2023/03/27 11:23:58;;;;;;;0.30;0.20;;;;;;;;;;4109459;28;20065;-37
2023/03/27 11:26:05;;;;;;;0.70;0.45;;;;;;;;;;4120768;28;20062;-37
2023/03/27 11:28:16;;;;;;;2.58;0.50;;;;;;;;;;4119704;28;20054;-37
2023/03/27 11:30:26;;;;;;;0.50;0.47;;;;;;;;;;4118534;28;20557;-39
2023/03/27 11:32:36;;;;;;;0.32;0.30;;;;;;;;;;4123309;28;20058;-38
2023/03/27 11:35:02;;;;;;;1.38;0.25;;;;;;;;;;4127641;28;20053;-39
2023/03/27 11:37:40;;;;;;;1.17;0.47;;;;;;;;;;4110018;28;20545;-36
2023/03/27 11:39:48;;;;;;;0.50;0.30;;;;;;;;;;4130725;28;20054;-39
2023/03/27 11:41:52;;;;;;;0.32;0.30;;;;;;;;;;4113379;28;20172;-38
2023/03/27 11:43:55;;;;;;;3.25;0.38;;;;;;;;;;4111134;28;20050;-40
2023/03/27 11:46:38;;;;;;;0.40;0.20;;;;;;;;;;4130024;28;20565;-36
2023/03/27 11:48:57;;;;;;;1.30;0.30;;;;;;;;;;4114038;28;20066;-40
2023/03/27 11:51:04;;;;;;;0.52;0.30;;;;;;;;;;4135690;28;20641;-39
2023/03/27 11:53:42;;;;;;;1.05;0.60;;;;;;;;;;4129701;28;20777;-39
2023/03/27 11:56:11;;;;;;;1.25;0.30;;;;;;;;;;4128036;28;20092;-39
2023/03/27 11:58:25;;;;;;;0.68;0.20;;;;;;;;;;4102980;28;20116;-38
2023/03/27 12:00:38;;;;;;;0.60;0.30;;;;;;;;;;4110632;28;20054;-36
2023/03/27 12:03:01;;;;;;;2.35;0.45;;;;;;;;;;4133106;28;20727;-40
2023/03/27 12:05:15;;;;;;;0.32;0.30;;;;;;;;;;4129597;28;20188;-41
2023/03/27 12:07:43;;;;;;;1.27;0.35;;;;;;;;;;4140811;28;20060;-42
2023/03/27 12:09:58;;;;;;;0.77;0.32;;;;;;;;;;4128558;28;20050;-42
2023/03/27 12:12:50;;;;;;;1.55;0.45;;;;;;;;;;4121239;28;20134;-42
2023/03/27 12:15:15;;;;;;;0.40;0.20;;;;;;;;;;4124696;28;20134;-42
2023/03/27 12:17:30;;;;;;;0.40;0.30;;;;;;;;;;4118302;28;20132;-41
2023/03/27 12:20:30;;;;;;;1.05;0.30;;;;;;;;;;4124965;28;20111;-40
2023/03/27 12:22:55;;;;;;;0.20;0.20;;;;;;;;;;4128731;28;21015;-37
2023/03/27 12:25:46;;;;;;;2.80;0.30;;;;;;;;;;4127147;28;20186;-39
2023/03/27 12:28:30;;;;;;;0.40;0.20;;;;;;;;;;4122766;28;20394;-40
2023/03/27 12:30:57;;;;;;;0.25;0.20;;;;;;;;;;4121497;28;20805;-35
2023/03/27 12:33:13;;;;;;;0.65;0.30;;;;;;;;;;4121928;28;20589;-38
2023/03/27 12:35:22;;;;;;;0.20;0.20;;;;;;;;;;4123061;28;20058;-36
2023/03/27 12:37:29;;;;;;;0.20;0.20;;;;;;;;;;4104676;28;20146;-40
2023/03/27 12:39:43;;;;;;;0.30;0.22;;;;;;;;;;4104939;28;20054;-36
2023/03/27 12:41:49;;;;;;;1.30;0.20;;;;;;;;;;4133783;28;20057;-36
2023/03/27 12:44:13;;;;;;;1.75;0.20;;;;;;;;;;4118927;28;20057;-37
2023/03/27 12:46:21;;;;;;;0.65;0.30;;;;;;;;;;4126735;28;21193;-37
2023/03/27 12:48:55;;;;;;;1.52;0.40;;;;;;;;;;4110083;28;20058;-37
2023/03/27 12:51:20;;;;;;;0.40;0.30;;;;;;;;;;4130644;28;20057;-39
2023/03/27 12:53:27;;;;;;;0.45;0.25;;;;;;;;;;4093160;28;20059;-37
2023/03/27 12:55:37;;;;;;;0.20;0.20;;;;;;;;;;4126302;28;20141;-37
2023/03/27 12:57:52;;;;;;;0.80;0.40;;;;;;;;;;4128725;28;20057;-35
2023/03/27 13:00:20;;;;;;;1.92;0.15;;;;;;;;;;4131927;28;20053;-37
2023/03/27 13:02:39;;;;;;;0.30;0.20;;;;;;;;;;4127016;28;20057;-35
2023/03/27 13:04:57;;;;;;;0.13;0.10;;;;;;;;;;4132194;28;20074;-38
2023/03/27 13:07:24;;;;;;;0.20;0.20;;;;;;;;;;4135625;28;20057;-38
2023/03/27 13:10:10;;;;;;;0.50;0.35;;;;;;;;;;4131782;28;20104;-37
2023/03/27 13:12:22;;;;;;;1.88;0.30;;;;;;;;;;4133769;28;20064;-39
2023/03/27 13:14:55;;;;;;;0.32;0.20;;;;;;;;;;4132463;28;20056;-42
2023/03/27 13:17:45;;;;;;;0.20;0.20;;;;;;;;;;4126032;28;20056;-37